• Join FlightAware (Why Join?)
  • Login
  • US Flag 
05:27AM EDT


 

Airport Tracker/Info


-or-


 

Live Flight TrackerFlight Track Log ✈ N96PD ✈ 01-May-2013 ✈ KSAT - KSAF

Flight Track Log - Related Links

Times and Time Zones

All times are in EDT time to prevent confusion due to time zone crossing. See the N96PD flight status page for this flight to view local times or setup timezone preferences in your user account.

Time Position Orientation Groundspeed Altitude Reporting Facility
EDT Latitude Longitude Course Direction KTS MPH feet Rate Location/Type
05:09PM 29.4279 -98.3985 130° Southeast 249 287 8,400  Level FlightAware ADS-B
05:10PM 29.4113 -98.4381 244° Southwest 247 284 9,600 2,400 Climbing FlightAware ADS-B
05:10PM 29.4086 -98.4571 261° West 274 315 10,200 2,880 Climbing FlightAware ADS-B
05:10PM 29.4159 -98.4779 292° West 270 311 11,000 3,000 Climbing FlightAware ADS-B
05:10PM 29.4190 -98.4820 311° West 269 310 11,200 3,060 Climbing FlightAware ADS-B
05:11PM 29.4426 -98.5006 326° Northwest 270 311 12,400 2,700 Climbing FlightAware ADS-B
05:11PM 29.4610 -98.5137 328° Northwest 282 325 13,000 840 Climbing FlightAware ADS-B
05:12PM 29.4996 -98.5398 330° Northwest 314 361 13,100 60 Climbing FlightAware ADS-B
05:12PM 29.5394 -98.5667 330° Northwest 332 382 13,100 1,140 Level FlightAware ADS-B
05:13PM 29.5793 -98.5938 329° Northwest 320 368 14,300 2,520 Climbing FlightAware ADS-B
05:13PM 29.6176 -98.6198 303° West 317 365 15,700 2,460 Climbing FlightAware ADS-B
05:14PM 29.6575 -98.6468 330° Northwest 324 373 16,900 2,160 Climbing FlightAware ADS-B
05:14PM 29.6986 -98.6746 330° Northwest 330 380 18,000 2,340 Climbing FlightAware ADS-B
05:15PM 29.7389 -98.7020 329° Northwest 331 381 19,300 2,760 Climbing FlightAware ADS-B
05:16PM 29.8335 -98.7661 330° Northwest 330 380 22,700 2,520 Climbing FlightAware ADS-B
05:16PM 29.8776 -98.7975 328° Northwest 335 386 23,800 1,860 Climbing FlightAware ADS-B
05:17PM 29.9099 -98.8353 315° West 342 394 24,700 1,620 Climbing FlightAware ADS-B
05:17PM 29.9421 -98.8801 310° West 350 403 25,500 1,380 Climbing FlightAware ADS-B
05:18PM 29.9773 -98.9298 309° West 367 422 26,200 1,260 Climbing FlightAware ADS-B
05:19PM 30.0176 -98.9868 309° West 367 422 27,000 780 Climbing FlightAware ADS-B
05:19PM 30.0444 -99.0258 309° West 380 437 27,100 1,740 Climbing Houston Center
05:20PM 30.1161 -99.1281 309° West 380 437 29,700 2,460 Climbing Houston Center
05:21PM 30.1906 -99.2108 316° Northwest 371 427 32,200 2,340 Climbing Houston Center
05:22PM 30.2658 -99.3011 314° West 364 419 34,600 1,920 Climbing Houston Center
05:23PM 30.3344 -99.3853 313° West 360 414 36,200 1,980 Climbing Houston Center
05:24PM 30.4036 -99.4639 316° Northwest 346 398 38,700 1,680 Climbing Houston Center
05:25PM 30.4700 -99.5444 314° West 344 396 39,800 600 Climbing Houston Center
05:26PM 30.5381 -99.6244 315° West 345 397 40,000 60 Climbing Houston Center
05:27PM 30.6150 -99.7125 315° West 379 436 40,000  Level Houston Center
05:28PM 30.6914 -99.8058 314° West 397 457 40,000  Level Houston Center
05:29PM 30.7686 -99.9003 314° West 401 461 40,000  Level Houston Center
05:30PM 30.8656 -100.0125 315° West 416 479 40,000  Level Houston Center
05:31PM 30.9469 -100.1097 314° West 413 475 40,000  Level Houston Center
05:33PM 31.0289 -100.2033 316° Northwest 411 473 40,000  Level Houston Center
05:34PM 31.1108 -100.3003 315° West 418 481 40,000  Level Houston Center
05:35PM 31.1908 -100.3978 314° West 415 478 40,000  Level Houston Center
05:35PM 31.2247 -100.4450 310° West 414 476 40,000  Level Fort Worth Center
05:36PM 31.3058 -100.5400 315° West 414 476 40,000  Level Fort Worth Center
05:37PM 31.3808 -100.6325 314° West 414 476 40,000  Level Fort Worth Center
05:38PM 31.4681 -100.7331 315° West 408 470 40,000  Level Fort Worth Center
05:39PM 31.5489 -100.8286 315° West 403 464 40,000  Level Fort Worth Center
05:40PM 31.6336 -100.9342 313° West 409 471 40,000  Level Fort Worth Center
05:41PM 31.7125 -101.0275 315° West 409 471 40,000  Level Fort Worth Center
05:42PM 31.7892 -101.1208 314° West 404 465 40,000  Level Fort Worth Center
05:43PM 31.8675 -101.2194 313° West 404 465 40,000  Level Fort Worth Center
05:44PM 31.9439 -101.3133 314° West 404 465 40,000  Level Fort Worth Center
05:45PM 32.0225 -101.4097 314° West 404 465 40,000  Level Fort Worth Center
05:46PM 32.1006 -101.5064 314° West 404 465 40,000  Level Fort Worth Center
05:47PM 32.1725 -101.6028 311° West 404 465 40,000  Level Fort Worth Center
05:48PM 32.2467 -101.6969 313° West 399 459 40,000  Level Fort Worth Center
05:49PM 32.3267 -101.7967 314° West 404 465 40,000  Level Fort Worth Center
05:50PM 32.4025 -101.8939 313° West 404 465 40,000  Level Fort Worth Center
05:51PM 32.4806 -101.9889 314° West 404 465 40,000  Level Fort Worth Center
05:52PM 32.5606 -102.0867 314° West 404 465 40,000  Level Fort Worth Center
05:53PM 32.6381 -102.1844 313° West 404 465 40,000  Level Fort Worth Center
05:54PM 32.7100 -102.2722 314° West 410 472 40,000  Level Fort Worth Center
05:55PM 32.7875 -102.3725 313° West 410 472 40,000  Level Fort Worth Center
05:56PM 32.8647 -102.4733 312° West 410 472 40,000  Level Fort Worth Center
05:57PM 32.9342 -102.5664 312° West 399 459 40,000  Level Fort Worth Center
05:59PM 33.0753 -102.7439 314° West 408 470 40,000  Level Albuquerque Center
06:00PM 33.1661 -102.8647 312° West 410 472 40,000  Level Albuquerque Center
06:01PM 33.2431 -102.9631 313° West 407 468 40,000  Level Albuquerque Center
06:02PM 33.3200 -103.0611 313° West 405 466 40,000  Level Albuquerque Center
06:03PM 33.3947 -103.1603 312° West 403 464 40,000  Level Albuquerque Center
06:04PM 33.4703 -103.2583 313° West 402 463 40,000  Level Albuquerque Center
06:05PM 33.5444 -103.3581 312° West 400 460 40,000  Level Albuquerque Center
06:06PM 33.6333 -103.4733 313° West 395 455 40,000  Level Albuquerque Center
06:07PM 33.7039 -103.5708 311° West 389 448 40,000  Level Albuquerque Center
06:08PM 33.7847 -103.6700 314° West 383 441 40,000  Level Albuquerque Center
06:09PM 33.8578 -103.7658 313° West 387 445 40,000  Level Albuquerque Center
06:10PM 33.9369 -103.8689 313° West 390 449 40,000  Level Albuquerque Center
06:11PM 34.0025 -103.9586 311° West 386 444 40,000  Level Albuquerque Center
06:12PM 34.0756 -104.0572 312° West 388 447 40,000  Level Albuquerque Center
06:13PM 34.1603 -104.1697 312° West 386 444 40,000  Level Albuquerque Center
06:14PM 34.2331 -104.2675 312° West 385 443 40,000  Level Albuquerque Center
06:15PM 34.3058 -104.3650 312° West 386 444 40,000  Level Albuquerque Center
06:16PM 34.3803 -104.4642 312° West 390 449 40,000  Level Albuquerque Center
06:17PM 34.4553 -104.5647 312° West 395 455 40,000 -300 Level Albuquerque Center
06:19PM 34.5300 -104.6661 312° West 397 457 39,400 -780 Descending Albuquerque Center
06:20PM 34.6017 -104.7631 312° West 387 445 38,400 -1,020 Descending Albuquerque Center
06:21PM 34.6764 -104.8650 312° West 392 451 37,400 -1,020 Descending Albuquerque Center
06:22PM 34.7544 -104.9708 312° West 406 467 36,400 -1,380 Descending Albuquerque Center
06:23PM 34.8442 -105.0936 312° West 411 473 34,600 -2,160 Descending Albuquerque Center
06:24PM 34.9186 -105.1950 312° West 403 464 32,000 -2,520 Descending Albuquerque Center
06:25PM 34.9900 -105.2931 312° West 390 449 29,400 -2,580 Descending Albuquerque Center
06:26PM 35.0594 -105.3892 311° West 380 437 26,700 -2,580 Descending Albuquerque Center
06:27PM 35.1261 -105.4842 311° West 370 426 24,100 -2,580 Descending Albuquerque Center
06:28PM 35.1958 -105.5808 311° West 371 427 21,400 -2,580 Descending Albuquerque Center
06:29PM 35.2661 -105.6803 311° West 379 436 18,800 -2,520 Descending Albuquerque Center
06:30PM 35.3347 -105.7744 312° West 373 429 16,200 -2,520 Descending Albuquerque Center